Time;durP1;ratioP1;P1;durP2;ratioP2;P2;SDS_P1;SDS_P2;PMS_P1;PMS_P2;Temp;Humidity;BMP_temperature;BMP_pressure;BME280_temperature;BME280_humidity;BME280_pressure;Samples;Min_cycle;Max_cycle;Signal;HPM_P1;HPM_P2
2023/04/26 00:02:23;;;;;;;0.43;0.40;;;4.20;80.90;;;;;;5112813;28;20036;-72
2023/04/26 00:04:54;;;;;;;0.95;0.50;;;4.20;81.00;;;;;;5112856;28;20058;-72
2023/04/26 00:07:23;;;;;;;0.40;0.40;;;4.20;81.00;;;;;;5113023;28;20400;-73
2023/04/26 00:09:51;;;;;;;0.40;0.38;;;4.00;81.00;;;;;;5093638;28;20089;-74
2023/04/26 00:12:17;;;;;;;1.60;0.50;;;4.10;81.20;;;;;;5113048;28;20126;-73
2023/04/26 00:14:43;;;;;;;0.60;0.40;;;3.90;81.10;;;;;;5112487;28;20036;-74
2023/04/26 00:17:09;;;;;;;0.35;0.35;;;4.10;81.30;;;;;;5095900;28;20104;-72
2023/04/26 00:19:35;;;;;;;0.38;0.35;;;4.00;81.20;;;;;;5093674;28;20040;-75
2023/04/26 00:22:01;;;;;;;0.43;0.43;;;4.00;81.20;;;;;;5112418;28;20051;-73
2023/04/26 00:24:27;;;;;;;0.88;0.45;;;3.90;81.10;;;;;;5113378;28;20039;-73
2023/04/26 00:26:54;;;;;;;0.40;0.30;;;3.90;81.10;;;;;;5112397;28;20080;-73
2023/04/26 00:29:20;;;;;;;0.60;0.50;;;3.90;81.10;;;;;;5092768;28;20044;-74
2023/04/26 00:31:45;;;;;;;0.22;0.20;;;3.90;81.20;;;;;;5112252;28;20078;-72
2023/04/26 00:34:11;;;;;;;0.40;0.40;;;3.90;81.20;;;;;;5112230;28;20047;-73
2023/04/26 00:36:37;;;;;;;0.50;0.50;;;3.90;81.20;;;;;;5093850;28;20122;-71
2023/04/26 00:39:02;;;;;;;0.57;0.50;;;3.80;81.30;;;;;;5111966;28;20047;-72
2023/04/26 00:41:28;;;;;;;0.98;0.70;;;3.80;81.30;;;;;;5093873;28;20040;-72
2023/04/26 00:43:54;;;;;;;0.52;0.50;;;3.80;81.40;;;;;;5112480;28;20043;-73
2023/04/26 00:46:21;;;;;;;0.40;0.30;;;3.80;81.40;;;;;;5112703;28;20385;-72
2023/04/26 00:48:47;;;;;;;0.60;0.50;;;3.70;81.40;;;;;;5112129;28;20047;-72
2023/04/26 00:51:13;;;;;;;0.60;0.30;;;3.80;81.50;;;;;;5111968;28;20048;-72
2023/04/26 00:53:39;;;;;;;0.40;0.40;;;3.70;81.50;;;;;;5092937;28;20072;-72
2023/04/26 00:56:07;;;;;;;0.50;0.30;;;3.70;81.60;;;;;;5112326;28;20097;-73
2023/04/26 00:58:33;;;;;;;1.15;0.52;;;3.60;81.50;;;;;;5111637;28;20072;-73
2023/04/26 01:00:59;;;;;;;0.43;0.30;;;3.60;81.60;;;;;;5111823;28;20476;-73
2023/04/26 01:03:25;;;;;;;0.30;0.30;;;3.60;81.60;;;;;;5111933;28;20395;-73
2023/04/26 01:05:52;;;;;;;0.40;0.38;;;3.60;81.70;;;;;;5111680;28;20036;-73
2023/04/26 01:08:19;;;;;;;0.50;0.50;;;3.60;81.70;;;;;;5111866;28;20058;-73
2023/04/26 01:10:47;;;;;;;0.30;0.30;;;3.60;81.70;;;;;;5111725;28;20554;-73
2023/04/26 01:13:13;;;;;;;0.70;0.30;;;3.50;81.70;;;;;;5111817;28;20485;-72
2023/04/26 01:15:44;;;;;;;1.38;0.45;;;3.50;81.80;;;;;;5111839;28;20044;-72
2023/04/26 01:18:10;;;;;;;0.45;0.45;;;3.50;81.90;;;;;;5112122;28;20048;-72
2023/04/26 01:20:36;;;;;;;0.88;0.43;;;3.40;81.90;;;;;;5093007;28;20062;-72
2023/04/26 01:23:02;;;;;;;0.40;0.40;;;3.50;81.90;;;;;;5092364;28;20047;-73
2023/04/26 01:25:27;;;;;;;0.50;0.43;;;3.50;81.90;;;;;;5112930;28;20036;-72
2023/04/26 01:27:53;;;;;;;0.47;0.47;;;3.50;81.90;;;;;;5096560;28;20045;-72
2023/04/26 01:30:19;;;;;;;0.30;0.30;;;3.50;81.90;;;;;;5096019;28;20158;-73
2023/04/26 01:32:44;;;;;;;0.28;0.28;;;3.40;81.90;;;;;;5115584;28;20047;-72
2023/04/26 01:35:10;;;;;;;0.40;0.40;;;3.50;82.00;;;;;;5115460;28;20042;-72
2023/04/26 01:37:36;;;;;;;0.25;0.25;;;3.40;82.00;;;;;;5114734;28;20044;-72
2023/04/26 01:40:05;;;;;;;0.63;0.32;;;3.30;81.90;;;;;;5095478;28;20031;-72
2023/04/26 01:42:31;;;;;;;0.45;0.45;;;3.50;82.00;;;;;;5115063;28;20051;-72
2023/04/26 01:44:57;;;;;;;0.60;0.40;;;3.40;82.00;;;;;;5114857;28;20138;-72
2023/04/26 01:47:25;;;;;;;0.50;0.47;;;3.30;82.00;;;;;;5114677;28;20501;-73
2023/04/26 01:49:50;;;;;;;0.52;0.47;;;3.30;82.00;;;;;;5095450;28;20039;-72
2023/04/26 01:52:16;;;;;;;0.40;0.40;;;3.20;82.00;;;;;;5114696;28;20031;-72
2023/04/26 01:54:42;;;;;;;0.63;0.52;;;3.40;82.20;;;;;;5114607;28;20079;-72
2023/04/26 01:57:08;;;;;;;1.08;0.45;;;3.20;82.20;;;;;;5114650;28;20062;-72
2023/04/26 01:59:33;;;;;;;0.93;0.50;;;3.30;82.30;;;;;;5114667;28;20036;-72
2023/04/26 02:01:59;;;;;;;0.93;0.60;;;3.20;82.30;;;;;;5114959;28;20042;-72
2023/04/26 02:04:25;;;;;;;0.85;0.55;;;3.20;82.30;;;;;;5114467;28;20046;-72
2023/04/26 02:06:51;;;;;;;0.30;0.30;;;3.20;82.30;;;;;;5114628;28;20126;-72
2023/04/26 02:09:17;;;;;;;0.45;0.45;;;3.10;82.20;;;;;;5114613;28;20123;-72
2023/04/26 02:11:42;;;;;;;0.82;0.70;;;3.10;82.30;;;;;;5114890;28;20388;-72
2023/04/26 02:14:08;;;;;;;0.82;0.60;;;3.10;82.30;;;;;;5094927;28;20048;-72
2023/04/26 02:16:34;;;;;;;0.40;0.38;;;3.10;82.40;;;;;;5114248;28;20126;-72
2023/04/26 02:18:59;;;;;;;0.40;0.40;;;3.10;82.30;;;;;;5114556;28;20043;-72
2023/04/26 02:21:27;;;;;;;0.50;0.47;;;3.10;82.30;;;;;;5114856;28;20063;-72
2023/04/26 02:23:52;;;;;;;1.10;0.60;;;3.00;82.30;;;;;;5114721;28;20035;-72
2023/04/26 02:26:18;;;;;;;0.63;0.57;;;3.00;82.40;;;;;;5114210;28;20508;-72
2023/04/26 02:28:43;;;;;;;0.60;0.50;;;3.00;82.40;;;;;;5114261;28;20043;-74
2023/04/26 02:31:10;;;;;;;0.73;0.40;;;3.00;82.50;;;;;;5114243;28;20040;-72
2023/04/26 02:33:35;;;;;;;0.60;0.45;;;3.00;82.50;;;;;;5114110;28;20055;-72
2023/04/26 02:36:04;;;;;;;0.77;0.63;;;3.00;82.50;;;;;;5113875;28;20035;-72
2023/04/26 02:38:31;;;;;;;0.70;0.70;;;2.90;82.40;;;;;;5114255;28;20092;-72
2023/04/26 02:40:59;;;;;;;1.85;0.82;;;3.00;82.50;;;;;;5114121;28;20454;-72
2023/04/26 02:43:25;;;;;;;0.50;0.50;;;3.00;82.60;;;;;;5113873;28;20051;-72
2023/04/26 02:45:50;;;;;;;0.60;0.50;;;2.90;82.60;;;;;;5113929;28;20035;-72
2023/04/26 02:48:16;;;;;;;0.82;0.50;;;2.90;82.60;;;;;;5113769;28;20031;-72
2023/04/26 02:50:41;;;;;;;1.13;0.80;;;2.90;82.70;;;;;;5095329;28;20450;-72
2023/04/26 02:53:07;;;;;;;0.60;0.60;;;2.90;82.70;;;;;;5095465;28;20058;-72
2023/04/26 02:55:33;;;;;;;0.55;0.50;;;2.90;82.70;;;;;;5093867;28;20051;-72
2023/04/26 02:57:58;;;;;;;1.00;0.80;;;2.80;82.60;;;;;;5095465;28;20043;-72
2023/04/26 03:00:25;;;;;;;0.47;0.43;;;2.80;82.70;;;;;;5113915;28;20086;-72
2023/04/26 03:02:50;;;;;;;0.95;0.70;;;2.90;82.80;;;;;;5113696;28;20500;-72
2023/04/26 03:05:16;;;;;;;0.85;0.63;;;2.80;82.80;;;;;;5093427;28;20047;-72
2023/04/26 03:07:42;;;;;;;1.33;0.82;;;2.70;82.80;;;;;;5113565;28;20048;-72
2023/04/26 03:10:08;;;;;;;0.75;0.60;;;2.70;82.90;;;;;;5113505;28;20047;-72
2023/04/26 03:12:34;;;;;;;0.77;0.50;;;2.80;83.00;;;;;;5093401;28;20374;-72
2023/04/26 03:15:02;;;;;;;0.60;0.50;;;2.70;83.00;;;;;;5113223;28;20131;-72
2023/04/26 03:17:28;;;;;;;1.27;0.65;;;2.70;83.00;;;;;;5094363;28;20044;-72
2023/04/26 03:19:54;;;;;;;0.95;0.57;;;2.80;83.10;;;;;;5113274;28;20031;-72
2023/04/26 03:22:20;;;;;;;0.50;0.50;;;2.70;83.00;;;;;;5092800;28;20040;-72
2023/04/26 03:24:46;;;;;;;0.73;0.60;;;2.70;83.10;;;;;;5094222;28;21003;-72
2023/04/26 03:27:12;;;;;;;1.27;0.60;;;2.70;83.10;;;;;;5113003;28;20123;-72
2023/04/26 03:29:38;;;;;;;1.08;0.55;;;2.70;83.20;;;;;;5094843;28;20469;-72
2023/04/26 03:32:04;;;;;;;0.77;0.50;;;2.70;83.10;;;;;;5113069;28;20123;-72
2023/04/26 03:34:30;;;;;;;0.45;0.45;;;2.70;83.10;;;;;;5113190;28;20050;-72
2023/04/26 03:36:56;;;;;;;0.60;0.50;;;2.70;83.10;;;;;;5113056;28;20468;-72
2023/04/26 03:39:22;;;;;;;0.80;0.50;;;2.60;83.10;;;;;;5094598;28;20047;-72
2023/04/26 03:41:48;;;;;;;1.48;0.60;;;2.60;83.10;;;;;;5113015;28;20485;-72
2023/04/26 03:44:14;;;;;;;1.10;0.60;;;2.60;83.10;;;;;;5093372;28;20040;-72
2023/04/26 03:46:40;;;;;;;0.98;0.70;;;2.60;83.20;;;;;;5112857;28;20036;-72
2023/04/26 03:49:05;;;;;;;1.05;0.77;;;2.60;83.20;;;;;;5093404;28;20089;-72
2023/04/26 03:51:31;;;;;;;1.10;0.77;;;2.60;83.20;;;;;;5112837;28;20043;-72
2023/04/26 03:53:58;;;;;;;0.60;0.55;;;2.60;83.20;;;;;;5112819;28;20032;-72
2023/04/26 03:56:24;;;;;;;0.80;0.47;;;2.60;83.30;;;;;;5077163;28;20043;-72
2023/04/26 03:58:50;;;;;;;1.58;0.70;;;2.50;83.20;;;;;;5093474;28;20040;-72
2023/04/26 04:01:16;;;;;;;1.33;0.80;;;2.50;83.30;;;;;;5112757;28;20445;-72
2023/04/26 04:03:41;;;;;;;1.08;0.70;;;2.50;83.30;;;;;;5112835;28;20397;-72
2023/04/26 04:06:07;;;;;;;0.60;0.60;;;2.50;83.30;;;;;;5112924;28;20040;-72
2023/04/26 04:08:33;;;;;;;1.00;0.68;;;2.50;83.40;;;;;;5113328;28;20055;-72
2023/04/26 04:11:00;;;;;;;1.63;0.95;;;2.50;83.40;;;;;;5112652;28;20113;-72
2023/04/26 04:13:26;;;;;;;0.77;0.68;;;2.50;83.40;;;;;;5112675;28;20036;-73
2023/04/26 04:15:51;;;;;;;1.70;0.80;;;2.50;83.50;;;;;;5113057;28;20511;-72
2023/04/26 04:18:17;;;;;;;1.23;0.80;;;2.50;83.50;;;;;;5112776;28;20044;-72
2023/04/26 04:20:43;;;;;;;1.20;0.88;;;2.40;83.50;;;;;;5113298;28;20110;-72
2023/04/26 04:23:09;;;;;;;2.15;0.98;;;2.50;83.50;;;;;;5112752;28;20138;-73
2023/04/26 04:25:35;;;;;;;0.90;0.60;;;2.40;83.40;;;;;;5094708;28;20102;-72
2023/04/26 04:28:02;;;;;;;1.73;0.70;;;2.40;83.50;;;;;;5112696;28;20066;-72
2023/04/26 04:30:29;;;;;;;1.23;0.70;;;2.40;83.50;;;;;;5112761;28;20401;-72
2023/04/26 04:32:57;;;;;;;1.13;0.77;;;2.40;83.50;;;;;;5112699;28;20047;-72
2023/04/26 04:35:27;;;;;;;0.82;0.68;;;2.40;83.50;;;;;;5112610;28;20119;-72
2023/04/26 04:37:55;;;;;;;0.73;0.65;;;2.50;83.60;;;;;;5112490;28;20048;-72
2023/04/26 04:40:21;;;;;;;1.65;0.77;;;2.40;83.50;;;;;;5094609;28;20104;-71
2023/04/26 04:42:47;;;;;;;1.35;0.82;;;2.40;83.60;;;;;;5112339;28;20036;-71
2023/04/26 04:45:14;;;;;;;0.90;0.50;;;2.40;83.50;;;;;;5112248;28;20040;-71
2023/04/26 04:47:39;;;;;;;1.02;0.68;;;2.40;83.50;;;;;;5112343;28;20044;-71
2023/04/26 04:50:06;;;;;;;1.10;0.80;;;2.40;83.50;;;;;;5112254;28;20131;-71
2023/04/26 04:52:32;;;;;;;1.65;0.68;;;2.50;83.60;;;;;;5112298;28;20036;-71
2023/04/26 04:54:58;;;;;;;0.77;0.55;;;2.50;83.50;;;;;;5075839;28;20058;-71
2023/04/26 04:57:24;;;;;;;1.02;0.68;;;2.50;83.50;;;;;;5094102;28;20054;-72
2023/04/26 04:59:50;;;;;;;1.27;0.70;;;2.40;83.40;;;;;;5112539;28;20043;-72
2023/04/26 05:02:15;;;;;;;1.00;0.57;;;2.50;83.40;;;;;;5115981;28;20084;-71
2023/04/26 05:04:41;;;;;;;1.17;0.60;;;2.50;83.40;;;;;;5115885;28;20105;-71
2023/04/26 05:07:07;;;;;;;1.58;1.10;;;2.60;83.40;;;;;;5115665;28;20048;-71
2023/04/26 05:09:32;;;;;;;1.40;0.90;;;2.60;83.40;;;;;;5116163;28;20051;-71
2023/04/26 05:11:58;;;;;;;0.60;0.50;;;2.60;83.50;;;;;;5116025;28;20050;-71
2023/04/26 05:14:24;;;;;;;0.80;0.63;;;2.60;83.50;;;;;;5080413;28;20101;-71
2023/04/26 05:16:49;;;;;;;1.50;0.90;;;2.70;83.50;;;;;;5096407;28;20043;-71
2023/04/26 05:19:15;;;;;;;0.65;0.60;;;2.70;83.40;;;;;;5116012;28;20054;-71
2023/04/26 05:21:41;;;;;;;0.90;0.50;;;2.70;83.40;;;;;;5097001;28;20428;-71
2023/04/26 05:24:06;;;;;;;1.13;0.60;;;2.80;84.00;;;;;;5115372;28;20378;-70
2023/04/26 05:26:34;;;;;;;1.33;0.70;;;2.80;83.40;;;;;;5115379;28;20421;-70
2023/04/26 05:29:00;;;;;;;0.90;0.47;;;2.90;83.30;;;;;;5115187;28;20039;-70
2023/04/26 05:31:25;;;;;;;1.20;0.60;;;2.90;83.20;;;;;;5115325;28;20054;-70
2023/04/26 05:33:51;;;;;;;1.00;0.63;;;3.00;83.20;;;;;;5115345;28;20501;-70
2023/04/26 05:36:17;;;;;;;1.50;0.70;;;3.10;83.80;;;;;;5115431;28;20058;-71
2023/04/26 05:38:43;;;;;;;0.80;0.55;;;3.10;83.10;;;;;;5115254;28;20035;-71
2023/04/26 05:41:08;;;;;;;0.77;0.60;;;3.20;83.10;;;;;;5115465;28;20409;-70
2023/04/26 05:43:34;;;;;;;0.90;0.60;;;3.20;82.90;;;;;;5115307;28;20104;-70
2023/04/26 05:46:00;;;;;;;1.30;0.80;;;3.30;83.00;;;;;;5115495;28;20509;-70
2023/04/26 05:48:26;;;;;;;0.82;0.55;;;3.40;82.90;;;;;;5095845;28;20524;-70
2023/04/26 05:50:52;;;;;;;2.80;0.80;;;3.40;82.90;;;;;;5115057;28;20043;-70
2023/04/26 05:53:18;;;;;;;1.67;0.70;;;3.40;82.80;;;;;;5115369;28;20074;-70
2023/04/26 05:55:44;;;;;;;0.75;0.55;;;3.50;82.80;;;;;;5115107;28;20040;-70
2023/04/26 05:58:11;;;;;;;0.88;0.70;;;3.60;82.70;;;;;;5095610;28;20039;-70
2023/04/26 06:00:37;;;;;;;1.05;0.68;;;3.70;82.70;;;;;;5115042;28;20043;-70
2023/04/26 06:03:03;;;;;;;0.90;0.70;;;3.70;82.70;;;;;;5114920;28;20051;-71
2023/04/26 06:05:29;;;;;;;2.55;0.73;;;3.70;82.70;;;;;;5095670;28;20552;-70
2023/04/26 06:07:55;;;;;;;0.75;0.60;;;3.80;82.70;;;;;;5114833;28;20051;-71
2023/04/26 06:10:21;;;;;;;1.58;0.82;;;3.90;82.70;;;;;;5114709;28;20135;-70
2023/04/26 06:12:47;;;;;;;2.58;0.90;;;4.00;82.60;;;;;;5114392;28;20554;-71
2023/04/26 06:15:13;;;;;;;0.75;0.50;;;4.10;82.60;;;;;;5114547;28;20043;-71
2023/04/26 06:17:40;;;;;;;0.88;0.55;;;4.20;82.50;;;;;;5114968;28;20078;-71
2023/04/26 06:20:08;;;;;;;0.60;0.60;;;4.20;82.40;;;;;;5114989;28;20059;-71
2023/04/26 06:22:33;;;;;;;0.75;0.50;;;4.40;82.30;;;;;;5114642;28;20516;-71
2023/04/26 06:24:59;;;;;;;1.10;0.60;;;4.40;82.10;;;;;;5114847;28;20126;-71
2023/04/26 06:27:25;;;;;;;1.38;0.70;;;4.60;82.00;;;;;;5114375;28;20130;-71
2023/04/26 06:29:51;;;;;;;2.10;0.65;;;4.80;81.90;;;;;;5078581;28;20064;-71
2023/04/26 06:32:17;;;;;;;2.58;0.98;;;5.00;81.70;;;;;;5114725;28;20031;-71
2023/04/26 06:34:44;;;;;;;0.57;0.57;;;5.00;81.50;;;;;;5114629;28;20447;-71
2023/04/26 06:37:10;;;;;;;1.20;0.80;;;5.20;81.30;;;;;;5114290;28;20043;-71
2023/04/26 06:39:37;;;;;;;0.93;0.70;;;5.30;81.10;;;;;;5094966;28;20532;-71
2023/04/26 06:42:03;;;;;;;0.80;0.60;;;5.50;81.00;;;;;;5114059;28;20039;-71
2023/04/26 06:44:29;;;;;;;1.17;0.77;;;5.60;80.90;;;;;;5113972;28;20036;-71
2023/04/26 06:46:55;;;;;;;2.38;0.95;;;5.60;80.90;;;;;;5114034;28;20382;-71
2023/04/26 06:49:21;;;;;;;1.75;1.00;;;5.70;81.00;;;;;;5114331;28;20093;-71
2023/04/26 06:51:47;;;;;;;1.25;0.77;;;5.70;81.00;;;;;;5114179;28;20039;-69
2023/04/26 06:54:13;;;;;;;1.27;1.00;;;5.80;81.10;;;;;;5113746;28;20093;-68
2023/04/26 06:56:38;;;;;;;1.63;0.80;;;5.90;81.20;;;;;;5078611;28;20395;-69
2023/04/26 06:59:05;;;;;;;1.02;0.68;;;6.00;81.10;;;;;;5037416;28;20037;-68
2023/04/26 07:01:33;;;;;;;1.10;0.75;;;6.10;81.10;;;;;;5054266;28;20127;-68
2023/04/26 07:04:02;;;;;;;1.30;0.70;;;6.20;81.00;;;;;;5071163;28;20048;-68
2023/04/26 07:06:28;;;;;;;1.45;0.80;;;6.40;80.90;;;;;;5071114;28;20043;-68
2023/04/26 07:08:54;;;;;;;1.35;0.75;;;6.50;80.60;;;;;;5023229;28;20049;-68
2023/04/26 07:11:19;;;;;;;2.42;0.80;;;6.60;80.60;;;;;;5070901;28;20063;-68
2023/04/26 07:13:45;;;;;;;1.55;0.82;;;6.60;80.50;;;;;;5037461;28;20514;-68
2023/04/26 07:16:11;;;;;;;1.00;0.70;;;6.80;80.40;;;;;;5071369;28;20059;-68
2023/04/26 07:18:39;;;;;;;1.02;0.70;;;6.90;80.30;;;;;;5070920;28;20147;-68
2023/04/26 07:21:05;;;;;;;0.80;0.63;;;6.90;80.90;;;;;;5071336;28;20033;-69
2023/04/26 07:23:31;;;;;;;1.85;0.80;;;7.10;80.30;;;;;;5069946;28;20045;-69
2023/04/26 07:25:57;;;;;;;1.45;0.80;;;7.20;80.30;;;;;;5037413;28;20033;-69
2023/04/26 07:28:23;;;;;;;0.93;0.60;;;7.20;80.30;;;;;;5053635;28;20070;-68
2023/04/26 07:30:48;;;;;;;0.93;0.60;;;7.30;80.20;;;;;;5103921;28;20560;-69
2023/04/26 07:33:14;;;;;;;0.82;0.50;;;7.40;80.20;;;;;;5094779;28;20118;-69
2023/04/26 07:35:41;;;;;;;0.47;0.47;;;7.50;80.10;;;;;;5094613;28;20131;-69
2023/04/26 07:38:07;;;;;;;1.88;0.90;;;7.50;80.00;;;;;;5078048;28;20052;-68
2023/04/26 07:40:33;;;;;;;0.75;0.73;;;7.60;80.00;;;;;;5077395;28;20062;-68
2023/04/26 07:42:59;;;;;;;0.77;0.50;;;7.70;79.90;;;;;;5076639;28;20486;-68
2023/04/26 07:45:24;;;;;;;0.85;0.50;;;7.80;79.80;;;;;;5113650;28;20039;-69
2023/04/26 07:47:50;;;;;;;0.40;0.40;;;7.90;79.70;;;;;;5113138;28;20035;-69
2023/04/26 07:50:16;;;;;;;0.93;0.68;;;8.00;79.50;;;;;;5113427;28;20122;-69
2023/04/26 07:52:42;;;;;;;2.95;0.57;;;8.10;79.40;;;;;;5075809;28;20036;-68
2023/04/26 07:55:08;;;;;;;1.48;0.57;;;8.20;79.20;;;;;;5077333;28;20040;-68
2023/04/26 07:57:34;;;;;;;1.13;0.60;;;8.30;79.10;;;;;;5093420;28;20040;-69
2023/04/26 07:59:59;;;;;;;0.57;0.57;;;8.40;79.10;;;;;;5113048;28;20043;-69
2023/04/26 08:02:25;;;;;;;0.40;0.40;;;8.40;78.90;;;;;;5112958;28;20027;-70
2023/04/26 08:04:51;;;;;;;0.85;0.50;;;8.40;78.90;;;;;;5112809;28;20096;-69
2023/04/26 08:07:17;;;;;;;0.50;0.50;;;8.40;79.10;;;;;;5112899;28;20063;-69
2023/04/26 08:09:43;;;;;;;0.60;0.47;;;8.50;79.30;;;;;;5112837;28;20035;-69
2023/04/26 08:12:11;;;;;;;0.65;0.43;;;8.50;79.30;;;;;;5093701;28;20094;-70
2023/04/26 08:14:37;;;;;;;0.45;0.40;;;8.50;79.00;;;;;;5112807;28;20046;-68
2023/04/26 08:17:03;;;;;;;0.63;0.60;;;8.70;78.90;;;;;;5092961;28;20046;-70
2023/04/26 08:19:31;;;;;;;0.50;0.40;;;8.60;78.70;;;;;;5094452;28;20035;-69
2023/04/26 08:21:57;;;;;;;0.90;0.40;;;8.60;78.80;;;;;;5095220;28;20443;-68
2023/04/26 08:24:23;;;;;;;1.15;0.50;;;8.70;79.10;;;;;;5093296;28;20051;-68
2023/04/26 08:26:48;;;;;;;1.00;0.50;;;8.70;79.00;;;;;;5092288;28;20032;-68
2023/04/26 08:29:15;;;;;;;0.25;0.25;;;8.80;79.10;;;;;;5112620;28;20485;-69
2023/04/26 08:31:40;;;;;;;8.30;1.30;;;8.90;79.00;;;;;;5112415;28;20122;-68
2023/04/26 08:34:10;;;;;;;3.08;0.82;;;9.10;78.90;;;;;;5113663;28;20561;-68
2023/04/26 08:36:37;;;;;;;2.53;0.60;;;9.40;78.50;;;;;;5116149;28;20043;-68
2023/04/26 08:39:03;;;;;;;1.02;0.60;;;9.60;77.90;;;;;;5116104;28;20501;-68
2023/04/26 08:41:34;;;;;;;0.38;0.38;;;9.80;77.40;;;;;;5097388;28;20125;-68
2023/04/26 08:44:04;;;;;;;0.70;0.60;;;9.80;76.90;;;;;;5116174;28;20062;-68
2023/04/26 08:46:35;;;;;;;1.65;0.50;;;9.80;77.00;;;;;;5080360;28;20036;-68
2023/04/26 08:49:08;;;;;;;;;;;9.70;77.30;;;;;;5116393;28;20043;-68
2023/04/26 08:51:36;;;;;;;1.98;0.50;;;9.60;77.70;;;;;;5080788;28;19968;-68
2023/04/26 08:54:03;;;;;;;0.45;0.38;;;9.60;77.90;;;;;;5063432;28;20048;-68
2023/04/26 08:56:30;;;;;;;0.70;0.40;;;9.60;77.80;;;;;;5115921;28;20175;-68
2023/04/26 08:58:57;;;;;;;0.60;0.50;;;9.50;77.90;;;;;;5095855;28;20040;-69
2023/04/26 09:01:24;;;;;;;0.60;0.35;;;9.40;78.70;;;;;;5098384;28;20078;-69
2023/04/26 09:03:51;;;;;;;0.55;0.40;;;9.40;78.30;;;;;;5098422;28;20073;-69
2023/04/26 09:06:18;;;;;;;0.30;0.30;;;9.30;78.50;;;;;;5080361;28;20473;-68
2023/04/26 09:08:45;;;;;;;0.63;0.40;;;9.30;78.60;;;;;;5080143;28;20043;-69
2023/04/26 09:11:10;;;;;;;0.75;0.52;;;9.40;78.50;;;;;;5095203;28;20044;-69
2023/04/26 09:13:36;;;;;;;0.45;0.40;;;9.30;78.30;;;;;;5116069;28;20366;-68
2023/04/26 09:16:02;;;;;;;1.08;0.45;;;9.40;78.30;;;;;;5116190;28;20044;-69
2023/04/26 09:18:27;;;;;;;1.27;0.47;;;9.30;78.30;;;;;;5093842;28;20040;-68
2023/04/26 09:21:06;;;;;;;0.50;0.50;;;9.40;78.40;;;;;;5115818;28;20435;-68
2023/04/26 09:23:32;;;;;;;0.43;0.40;;;9.40;78.40;;;;;;5113045;28;20040;-69
2023/04/26 09:26:16;;;;;;;0.40;0.40;;;9.50;78.40;;;;;;5095008;28;20478;-69
2023/04/26 09:28:41;;;;;;;3.65;0.65;;;9.80;77.90;;;;;;5115214;28;20055;-69
2023/04/26 09:31:07;;;;;;;1.90;0.60;;;10.10;77.30;;;;;;5080139;28;20047;-69
2023/04/26 09:33:33;;;;;;;1.20;0.57;;;10.00;76.80;;;;;;5097382;28;20409;-69
2023/04/26 09:36:11;;;;;;;0.50;0.40;;;9.80;76.90;;;;;;5097465;28;20040;-69
2023/04/26 09:38:42;;;;;;;0.43;0.40;;;9.60;77.50;;;;;;5113058;28;20035;-68
2023/04/26 09:41:07;;;;;;;0.30;0.30;;;9.50;78.00;;;;;;5115183;28;20046;-69
2023/04/26 09:43:37;;;;;;;0.40;0.40;;;9.40;78.30;;;;;;5115135;28;20277;-68
2023/04/26 09:46:02;;;;;;;1.17;0.43;;;9.30;78.30;;;;;;5092862;28;20042;-68
2023/04/26 09:48:30;;;;;;;0.30;0.30;;;9.20;78.50;;;;;;5115401;28;20035;-68
2023/04/26 09:50:58;;;;;;;0.30;0.30;;;9.20;78.90;;;;;;5115690;28;20096;-68
2023/04/26 09:53:33;;;;;;;0.40;0.40;;;9.10;78.80;;;;;;5114987;28;20048;-68
2023/04/26 09:56:17;;;;;;;0.40;0.40;;;9.00;78.90;;;;;;5115234;28;20042;-68
2023/04/26 09:59:04;;;;;;;0.47;0.43;;;9.10;78.90;;;;;;5113891;28;20055;-68
2023/04/26 10:01:32;;;;;;;0.40;0.30;;;9.10;78.80;;;;;;5114786;28;20039;-68
2023/04/26 10:04:00;;;;;;;0.45;0.45;;;9.00;78.70;;;;;;5114748;28;20050;-68
2023/04/26 10:06:27;;;;;;;0.47;0.40;;;9.00;78.60;;;;;;5114653;28;20161;-68
2023/04/26 10:08:53;;;;;;;0.77;0.68;;;9.00;78.40;;;;;;5114730;28;20089;-68
2023/04/26 10:11:20;;;;;;;0.98;0.63;;;9.00;78.20;;;;;;5115033;28;20046;-68
2023/04/26 10:13:48;;;;;;;1.42;0.50;;;9.00;78.10;;;;;;5114805;28;20044;-68
2023/04/26 10:16:15;;;;;;;0.50;0.50;;;9.00;78.00;;;;;;5114728;28;20061;-68
2023/04/26 10:18:41;;;;;;;0.77;0.60;;;9.10;78.10;;;;;;5114260;28;20046;-69
2023/04/26 10:21:13;;;;;;;0.45;0.45;;;9.10;77.90;;;;;;5096272;28;20040;-68
2023/04/26 10:23:40;;;;;;;0.50;0.40;;;9.20;77.70;;;;;;5097281;28;20042;-69
2023/04/26 10:26:06;;;;;;;0.70;0.47;;;9.20;77.50;;;;;;5095810;28;20036;-68
2023/04/26 10:28:53;;;;;;;1.27;0.50;;;9.20;77.40;;;;;;5114566;28;20433;-68
2023/04/26 10:31:18;;;;;;;1.50;0.80;;;9.20;77.20;;;;;;5097184;28;20047;-69
2023/04/26 10:34:04;;;;;;;0.70;0.70;;;9.20;77.00;;;;;;5095588;28;20032;-68
2023/04/26 10:36:31;;;;;;;0.60;0.60;;;9.20;77.00;;;;;;5114083;28;20039;-68
2023/04/26 10:39:21;;;;;;;1.58;0.45;;;9.30;77.00;;;;;;5114137;28;20446;-69
2023/04/26 10:41:46;;;;;;;0.65;0.50;;;9.30;76.80;;;;;;5114432;28;20059;-68
2023/04/26 10:44:39;;;;;;;0.40;0.40;;;9.40;76.70;;;;;;5114125;28;20070;-68
2023/04/26 10:47:19;;;;;;;0.32;0.32;;;9.40;77.30;;;;;;5114182;28;20039;-68
2023/04/26 10:49:47;;;;;;;0.45;0.32;;;9.30;76.60;;;;;;5094831;28;20079;-68
2023/04/26 10:52:15;;;;;;;1.75;0.60;;;9.30;76.60;;;;;;5094115;28;20090;-68
2023/04/26 10:54:48;;;;;;;1.05;0.60;;;9.30;76.60;;;;;;5095667;28;20044;-67
2023/04/26 10:57:14;;;;;;;0.82;0.40;;;9.30;76.50;;;;;;5095791;28;20074;-68
2023/04/26 11:00:00;;;;;;;0.40;0.40;;;9.30;76.50;;;;;;5095396;28;20036;-68
2023/04/26 11:02:46;;;;;;;0.50;0.50;;;9.30;76.50;;;;;;5097543;28;20051;-69
2023/04/26 11:05:49;;;;;;;0.40;0.40;;;9.30;76.50;;;;;;5113369;28;20028;-69
2023/04/26 11:08:31;;;;;;;0.75;0.50;;;9.30;76.50;;;;;;5095427;28;20093;-68
2023/04/26 11:10:58;;;;;;;;;;;9.30;76.40;;;;;;5078848;28;20108;-69
2023/04/26 11:13:24;;;;;;;0.30;0.30;;;9.30;76.30;;;;;;5113417;28;20284;-69
2023/04/26 11:15:58;;;;;;;0.35;0.32;;;9.30;76.40;;;;;;5077192;28;20044;-69
2023/04/26 11:18:24;;;;;;;0.40;0.38;;;9.40;76.40;;;;;;5094296;28;20048;-68
2023/04/26 11:20:50;;;;;;;0.50;0.50;;;9.40;76.10;;;;;;5077060;28;20051;-69
2023/04/26 11:23:18;;;;;;;0.40;0.40;;;9.40;76.00;;;;;;5113907;28;20043;-68
2023/04/26 11:25:44;;;;;;;0.55;0.30;;;9.50;76.00;;;;;;5114047;28;20036;-68
2023/04/26 11:28:11;;;;;;;0.35;0.32;;;9.50;75.80;;;;;;5095437;28;20065;-69
2023/04/26 11:30:36;;;;;;;0.90;0.40;;;9.50;75.70;;;;;;5113625;28;20101;-68
2023/04/26 11:33:04;;;;;;;0.50;0.50;;;9.50;75.70;;;;;;5078469;28;20052;-69
2023/04/26 11:35:33;;;;;;;0.35;0.35;;;9.50;75.60;;;;;;5113438;28;20067;-69
2023/04/26 11:38:00;;;;;;;0.30;0.30;;;9.60;75.50;;;;;;5113596;28;20102;-69
2023/04/26 11:40:30;;;;;;;0.30;0.30;;;9.70;75.40;;;;;;5113248;28;20055;-68
2023/04/26 11:43:07;;;;;;;1.13;0.30;;;9.70;75.20;;;;;;5077072;28;20062;-70
2023/04/26 11:45:35;;;;;;;0.43;0.40;;;9.80;75.10;;;;;;5077823;28;20039;-68
2023/04/26 11:48:03;;;;;;;0.20;0.20;;;9.80;74.90;;;;;;5113150;28;20071;-68
2023/04/26 11:50:32;;;;;;;0.30;0.30;;;9.90;74.80;;;;;;5078410;28;20047;-69
2023/04/26 11:52:59;;;;;;;0.30;0.30;;;10.00;74.80;;;;;;5112838;28;20051;-70
2023/04/26 11:55:30;;;;;;;0.20;0.20;;;10.10;74.70;;;;;;5093015;28;20063;-69
2023/04/26 11:57:57;;;;;;;0.30;0.30;;;10.20;74.40;;;;;;5112786;28;20153;-69
2023/04/26 12:00:23;;;;;;;0.30;0.30;;;10.30;74.30;;;;;;5094621;28;20177;-69
2023/04/26 12:02:50;;;;;;;0.20;0.20;;;10.30;73.90;;;;;;5113150;28;20047;-69
2023/04/26 12:05:31;;;;;;;1.00;0.40;;;10.40;74.00;;;;;;5113132;28;20097;-69
2023/04/26 12:07:58;;;;;;;0.55;0.35;;;10.50;73.90;;;;;;5112856;28;20031;-68
2023/04/26 12:10:26;;;;;;;0.40;0.40;;;10.70;73.70;;;;;;5093895;28;20055;-69
2023/04/26 12:12:55;;;;;;;0.47;0.40;;;10.80;73.60;;;;;;5112712;28;20393;-69
2023/04/26 12:15:24;;;;;;;0.50;0.40;;;10.90;73.40;;;;;;5112978;28;20040;-69
2023/04/26 12:17:52;;;;;;;1.30;0.47;;;11.00;73.20;;;;;;5112643;28;20082;-69
2023/04/26 12:20:27;;;;;;;0.40;0.40;;;11.30;72.90;;;;;;5111806;28;21207;-69
2023/04/26 12:23:04;;;;;;;0.30;0.30;;;11.30;72.50;;;;;;5112441;28;20122;-69
2023/04/26 12:25:30;;;;;;;1.27;0.43;;;11.30;72.50;;;;;;5094341;28;20122;-68
2023/04/26 12:27:56;;;;;;;0.57;0.30;;;11.30;72.50;;;;;;5112605;28;20089;-70
2023/04/26 12:30:24;;;;;;;0.47;0.43;;;11.20;73.30;;;;;;5093351;28;20070;-68
2023/04/26 12:32:50;;;;;;;0.60;0.50;;;11.20;72.90;;;;;;5112835;28;20530;-69
2023/04/26 12:35:16;;;;;;;0.77;0.57;;;11.00;73.10;;;;;;5112536;28;20111;-69
2023/04/26 12:37:41;;;;;;;0.60;0.60;;;11.00;73.20;;;;;;5094356;28;20039;-69
2023/04/26 12:40:08;;;;;;;0.73;0.63;;;10.90;73.40;;;;;;5112893;28;20168;-69
2023/04/26 12:42:34;;;;;;;1.42;0.88;;;10.90;73.40;;;;;;5077875;28;20075;-70
2023/04/26 12:45:00;;;;;;;0.50;0.50;;;10.80;73.40;;;;;;5077168;28;20054;-69
2023/04/26 12:47:25;;;;;;;0.80;0.60;;;10.70;73.40;;;;;;5076733;28;20048;-69
2023/04/26 12:49:51;;;;;;;1.00;0.55;;;10.60;73.60;;;;;;5112341;28;20464;-69
2023/04/26 12:52:17;;;;;;;0.70;0.57;;;10.70;73.70;;;;;;5112733;28;20134;-70
2023/04/26 12:54:43;;;;;;;1.13;0.82;;;10.70;73.70;;;;;;5094035;28;20040;-69
2023/04/26 12:57:09;;;;;;;1.73;1.00;;;10.70;73.30;;;;;;5112068;28;20385;-69
2023/04/26 12:59:35;;;;;;;1.02;0.70;;;10.60;73.20;;;;;;5111983;28;20054;-69